X  Sluiten METAR luchtvaart weer gegevens      EHKD De Kooy Airport
Temperatuur
11°C Temperatuur
8°C Dauwpunt
82% Vochtigheid



Wind
14 KM/U
9 MPH
4 M/S
8 KTS



220°
ZW
Huidig weer

Lichte Motregen Lichte Motregen
Luchtdruk 1015.92 (hPa) - 30 (inHg)
Zicht 6 (mijl) - 9.7 (km)
Vliegveld
Vliegveld code EHKD

Locatie : De Kooy Airport
Afstand: 34 (km)

Metar:
EHKD 130455Z AUTO 22008KT 190V250 9999 -DZ FEW015CB OVC051 11/08 Q1016 BLU NOSIG

Tijd: 13-06-2024 06:55 CEST